sensor_id;sensor_type;location;lat;lon;timestamp;pressure;altitude;pressure_sealevel;temperature;humidity
85914;BME280;76454;48.724;16.968;2024-02-14T00:01:36;100415.25;;;18.41;42.03
85914;BME280;76454;48.724;16.968;2024-02-14T00:04:02;100416.06;;;18.37;41.86
85914;BME280;76454;48.724;16.968;2024-02-14T00:06:27;100419.34;;;18.34;42.12
85914;BME280;76454;48.724;16.968;2024-02-14T00:08:52;100419.09;;;18.30;42.39
85914;BME280;76454;48.724;16.968;2024-02-14T00:11:17;100413.16;;;18.28;42.53
85914;BME280;76454;48.724;16.968;2024-02-14T00:13:43;100412.63;;;18.26;42.76
85914;BME280;76454;48.724;16.968;2024-02-14T00:16:08;100411.28;;;18.23;42.83
85914;BME280;76454;48.724;16.968;2024-02-14T00:18:33;100418.06;;;18.21;43.25
85914;BME280;76454;48.724;16.968;2024-02-14T00:20:58;100416.44;;;18.20;43.31
85914;BME280;76454;48.724;16.968;2024-02-14T00:23:23;100416.75;;;18.18;43.53
85914;BME280;76454;48.724;16.968;2024-02-14T00:25:49;100419.72;;;18.17;43.74
85914;BME280;76454;48.724;16.968;2024-02-14T00:28:14;100429.75;;;18.16;43.69
85914;BME280;76454;48.724;16.968;2024-02-14T00:30:39;100436.25;;;18.15;43.71
85914;BME280;76454;48.724;16.968;2024-02-14T00:33:04;100434.63;;;18.14;43.97
85914;BME280;76454;48.724;16.968;2024-02-14T00:35:30;100434.91;;;18.12;43.71
85914;BME280;76454;48.724;16.968;2024-02-14T00:37:55;100440.59;;;18.11;43.78
85914;BME280;76454;48.724;16.968;2024-02-14T00:40:21;100433.59;;;18.10;43.79
85914;BME280;76454;48.724;16.968;2024-02-14T00:42:47;100434.66;;;18.09;43.82
85914;BME280;76454;48.724;16.968;2024-02-14T00:45:12;100436.28;;;18.10;43.85
85914;BME280;76454;48.724;16.968;2024-02-14T00:47:37;100437.88;;;18.11;43.65
85914;BME280;76454;48.724;16.968;2024-02-14T00:50:03;100440.59;;;18.11;44.02
85914;BME280;76454;48.724;16.968;2024-02-14T00:52:28;100440.59;;;18.11;43.77
85914;BME280;76454;48.724;16.968;2024-02-14T00:54:54;100441.41;;;18.11;43.94
85914;BME280;76454;48.724;16.968;2024-02-14T00:57:19;100437.38;;;18.09;43.54
85914;BME280;76454;48.724;16.968;2024-02-14T00:59:44;100443.88;;;18.08;43.95
85914;BME280;76454;48.724;16.968;2024-02-14T01:02:10;100441.16;;;18.08;43.87
85914;BME280;76454;48.724;16.968;2024-02-14T01:04:35;100433.03;;;18.08;44.04
85914;BME280;76454;48.724;16.968;2024-02-14T01:07:03;100436.81;;;18.07;43.80
85914;BME280;76454;48.724;16.968;2024-02-14T01:09:29;100436.28;;;18.10;43.87
85914;BME280;76454;48.724;16.968;2024-02-14T01:11:54;100433.53;;;18.15;43.66
85914;BME280;76454;48.724;16.968;2024-02-14T01:14:19;100433.50;;;18.20;43.22
85914;BME280;76454;48.724;16.968;2024-02-14T01:16:44;100427.78;;;18.27;42.77
85914;BME280;76454;48.724;16.968;2024-02-14T01:19:10;100431.28;;;18.33;42.06
85914;BME280;76454;48.724;16.968;2024-02-14T01:21:36;100429.63;;;18.37;42.29
85914;BME280;76454;48.724;16.968;2024-02-14T01:24:01;100420.13;;;18.39;41.86
85914;BME280;76454;48.724;16.968;2024-02-14T01:26:26;100420.06;;;18.44;41.89
85914;BME280;76454;48.724;16.968;2024-02-14T01:28:51;100420.63;;;18.47;41.73
85914;BME280;76454;48.724;16.968;2024-02-14T01:31:17;100423.03;;;18.48;41.14
85914;BME280;76454;48.724;16.968;2024-02-14T01:33:42;100422.78;;;18.44;41.33
85914;BME280;76454;48.724;16.968;2024-02-14T01:36:08;100422.81;;;18.39;41.51
85914;BME280;76454;48.724;16.968;2024-02-14T01:38:33;100422.56;;;18.36;41.46
85914;BME280;76454;48.724;16.968;2024-02-14T01:41:01;100426.66;;;18.33;41.69
85914;BME280;76454;48.724;16.968;2024-02-14T01:43:27;100418.28;;;18.29;41.85
85914;BME280;76454;48.724;16.968;2024-02-14T01:45:52;100409.41;;;18.24;42.20
85914;BME280;76454;48.724;16.968;2024-02-14T01:48:18;100413.19;;;18.23;42.41
85914;BME280;76454;48.724;16.968;2024-02-14T01:50:43;100418.34;;;18.19;42.46
85914;BME280;76454;48.724;16.968;2024-02-14T01:53:09;100415.66;;;18.19;42.94
85914;BME280;76454;48.724;16.968;2024-02-14T01:55:34;100412.69;;;18.16;42.85
85914;BME280;76454;48.724;16.968;2024-02-14T01:57:59;100414.06;;;18.13;43.13
85914;BME280;76454;48.724;16.968;2024-02-14T02:00:25;100411.66;;;18.11;43.39
85914;BME280;76454;48.724;16.968;2024-02-14T02:02:50;100417.06;;;18.11;43.34
85914;BME280;76454;48.724;16.968;2024-02-14T02:05:16;100412.19;;;18.08;43.53
85914;BME280;76454;48.724;16.968;2024-02-14T02:07:41;100413.31;;;18.07;43.42
85914;BME280;76454;48.724;16.968;2024-02-14T02:10:09;100415.19;;;18.07;43.47
85914;BME280;76454;48.724;16.968;2024-02-14T02:12:35;100413.06;;;18.04;43.61
85914;BME280;76454;48.724;16.968;2024-02-14T02:15:03;100416.00;;;18.02;43.78
85914;BME280;76454;48.724;16.968;2024-02-14T02:17:29;100409.00;;;18.01;43.67
85914;BME280;76454;48.724;16.968;2024-02-14T02:19:54;100414.69;;;18.00;43.66
85914;BME280;76454;48.724;16.968;2024-02-14T02:22:19;100418.50;;;17.99;43.60
85914;BME280;76454;48.724;16.968;2024-02-14T02:24:45;100424.69;;;17.99;43.83
85914;BME280;76454;48.724;16.968;2024-02-14T02:27:10;100421.47;;;17.97;43.94
85914;BME280;76454;48.724;16.968;2024-02-14T02:29:35;100419.03;;;17.95;43.69
85914;BME280;76454;48.724;16.968;2024-02-14T02:32:03;100419.03;;;17.95;43.81
85914;BME280;76454;48.724;16.968;2024-02-14T02:34:30;100418.50;;;17.99;43.35
85914;BME280;76454;48.724;16.968;2024-02-14T02:36:55;100424.97;;;18.03;43.57
85914;BME280;76454;48.724;16.968;2024-02-14T02:39:21;100423.84;;;18.09;43.14
85914;BME280;76454;48.724;16.968;2024-02-14T02:41:46;100426.50;;;18.14;42.75
85914;BME280;76454;48.724;16.968;2024-02-14T02:44:13;100429.97;;;18.20;42.22
85914;BME280;76454;48.724;16.968;2024-02-14T02:46:38;100431.56;;;18.26;42.06
85914;BME280;76454;48.724;16.968;2024-02-14T02:49:04;100436.69;;;18.33;41.48
85914;BME280;76454;48.724;16.968;2024-02-14T02:51:29;100435.81;;;18.37;41.18
85914;BME280;76454;48.724;16.968;2024-02-14T02:53:54;100436.91;;;18.41;41.18
85914;BME280;76454;48.724;16.968;2024-02-14T02:56:20;100434.16;;;18.47;40.99
85914;BME280;76454;48.724;16.968;2024-02-14T02:58:47;100424.94;;;18.48;40.77
85914;BME280;76454;48.724;16.968;2024-02-14T03:01:13;100430.34;;;18.48;40.48
85914;BME280;76454;48.724;16.968;2024-02-14T03:03:38;100430.13;;;18.44;40.77
85914;BME280;76454;48.724;16.968;2024-02-14T03:06:04;100436.91;;;18.41;40.60
85914;BME280;76454;48.724;16.968;2024-02-14T03:08:29;100436.38;;;18.39;40.95
85914;BME280;76454;48.724;16.968;2024-02-14T03:10:55;100442.59;;;18.35;40.98
85914;BME280;76454;48.724;16.968;2024-02-14T03:13:20;100442.09;;;18.33;41.34
85914;BME280;76454;48.724;16.968;2024-02-14T03:15:47;100443.47;;;18.30;41.61
85914;BME280;76454;48.724;16.968;2024-02-14T03:18:13;100449.97;;;18.29;41.83
85914;BME280;76454;48.724;16.968;2024-02-14T03:20:38;100444.03;;;18.27;41.74
85914;BME280;76454;48.724;16.968;2024-02-14T03:23:03;100447.00;;;18.25;42.07
85914;BME280;76454;48.724;16.968;2024-02-14T03:25:29;100449.19;;;18.23;41.89
85914;BME280;76454;48.724;16.968;2024-02-14T03:27:54;100444.88;;;18.22;42.30
85914;BME280;76454;48.724;16.968;2024-02-14T03:30:19;100457.63;;;18.17;42.48
85914;BME280;76454;48.724;16.968;2024-02-14T03:32:45;100454.66;;;18.13;42.67
85914;BME280;76454;48.724;16.968;2024-02-14T03:35:11;100457.09;;;18.09;42.54
85914;BME280;76454;48.724;16.968;2024-02-14T03:37:38;100464.72;;;18.07;42.78
85914;BME280;76454;48.724;16.968;2024-02-14T03:40:04;100468.50;;;18.06;42.78
85914;BME280;76454;48.724;16.968;2024-02-14T03:42:30;100465.25;;;18.04;43.01
85914;BME280;76454;48.724;16.968;2024-02-14T03:44:55;100464.47;;;18.04;43.14
85914;BME280;76454;48.724;16.968;2024-02-14T03:47:27;100466.63;;;18.02;43.17
85914;BME280;76454;48.724;16.968;2024-02-14T03:49:52;100466.09;;;18.00;43.11
85914;BME280;76454;48.724;16.968;2024-02-14T03:52:17;100468.00;;;17.99;43.05
85914;BME280;76454;48.724;16.968;2024-02-14T03:54:43;100469.34;;;17.96;43.06
85914;BME280;76454;48.724;16.968;2024-02-14T03:57:09;100468.53;;;17.96;43.27
85914;BME280;76454;48.724;16.968;2024-02-14T03:59:37;100475.06;;;17.95;43.30
85914;BME280;76454;48.724;16.968;2024-02-14T04:02:04;100469.88;;;17.93;43.53
85914;BME280;76454;48.724;16.968;2024-02-14T04:04:29;100459.31;;;17.92;43.46
85914;BME280;76454;48.724;16.968;2024-02-14T04:06:54;100459.63;;;17.95;43.34
85914;BME280;76454;48.724;16.968;2024-02-14T04:09:19;100458.78;;;18.00;43.10
85914;BME280;76454;48.724;16.968;2024-02-14T04:11:44;100462.25;;;18.06;42.74
85914;BME280;76454;48.724;16.968;2024-02-14T04:14:09;100461.44;;;18.10;42.24
85914;BME280;76454;48.724;16.968;2024-02-14T04:16:35;100459.25;;;18.18;41.51
85914;BME280;76454;48.724;16.968;2024-02-14T04:19:01;100458.13;;;18.24;41.69
85914;BME280;76454;48.724;16.968;2024-02-14T04:21:26;100467.28;;;18.28;41.48
85914;BME280;76454;48.724;16.968;2024-02-14T04:23:51;100464.84;;;18.32;41.29
85914;BME280;76454;48.724;16.968;2024-02-14T04:26:20;100466.72;;;18.36;40.80
85914;BME280;76454;48.724;16.968;2024-02-14T04:28:45;100465.59;;;18.37;40.49
85914;BME280;76454;48.724;16.968;2024-02-14T04:31:10;100471.25;;;18.41;40.26
85914;BME280;76454;48.724;16.968;2024-02-14T04:33:35;100471.56;;;18.39;40.27
85914;BME280;76454;48.724;16.968;2024-02-14T04:36:01;100469.69;;;18.35;40.41
85914;BME280;76454;48.724;16.968;2024-02-14T04:38:26;100476.47;;;18.32;40.49
85914;BME280;76454;48.724;16.968;2024-02-14T04:40:51;100477.03;;;18.29;40.56
85914;BME280;76454;48.724;16.968;2024-02-14T04:43:17;100472.47;;;18.24;41.10
85914;BME280;76454;48.724;16.968;2024-02-14T04:45:42;100477.63;;;18.21;41.28
85914;BME280;76454;48.724;16.968;2024-02-14T04:48:08;100477.34;;;18.17;41.59
85914;BME280;76454;48.724;16.968;2024-02-14T04:50:33;100475.22;;;18.14;41.85
85914;BME280;76454;48.724;16.968;2024-02-14T04:52:58;100476.59;;;18.11;41.79
85914;BME280;76454;48.724;16.968;2024-02-14T04:55:24;100470.91;;;18.13;42.16
85914;BME280;76454;48.724;16.968;2024-02-14T04:57:49;100476.03;;;18.15;42.15
85914;BME280;76454;48.724;16.968;2024-02-14T05:00:14;100479.81;;;18.13;41.96
85914;BME280;76454;48.724;16.968;2024-02-14T05:02:39;100470.91;;;18.13;41.99
85914;BME280;76454;48.724;16.968;2024-02-14T05:05:06;100470.91;;;18.13;42.01
85914;BME280;76454;48.724;16.968;2024-02-14T05:07:33;100466.56;;;18.12;42.09
85914;BME280;76454;48.724;16.968;2024-02-14T05:09:59;100471.47;;;18.10;42.21
85914;BME280;76454;48.724;16.968;2024-02-14T05:12:24;100476.88;;;18.10;42.23
85914;BME280;76454;48.724;16.968;2024-02-14T05:14:49;100476.06;;;18.09;42.21
85914;BME280;76454;48.724;16.968;2024-02-14T05:17:14;100480.13;;;18.07;42.19
85914;BME280;76454;48.724;16.968;2024-02-14T05:19:41;100480.94;;;18.07;42.35
85914;BME280;76454;48.724;16.968;2024-02-14T05:22:06;100481.50;;;18.04;42.16
85914;BME280;76454;48.724;16.968;2024-02-14T05:24:31;100482.28;;;18.05;42.42
85914;BME280;76454;48.724;16.968;2024-02-14T05:26:57;100479.88;;;18.03;42.14
85914;BME280;76454;48.724;16.968;2024-02-14T05:29:22;100477.16;;;18.03;42.59
85914;BME280;76454;48.724;16.968;2024-02-14T05:31:47;100472.31;;;18.00;42.42
85914;BME280;76454;48.724;16.968;2024-02-14T05:34:17;100478.00;;;17.99;42.43
85914;BME280;76454;48.724;16.968;2024-02-14T05:36:42;100490.72;;;17.98;42.17
85914;BME280;76454;48.724;16.968;2024-02-14T05:39:07;100482.84;;;18.02;42.21
85914;BME280;76454;48.724;16.968;2024-02-14T05:41:33;100492.28;;;18.09;42.06
85914;BME280;76454;48.724;16.968;2024-02-14T05:43:58;100480.38;;;18.10;41.47
85914;BME280;76454;48.724;16.968;2024-02-14T05:46:23;100485.47;;;18.17;41.54
85914;BME280;76454;48.724;16.968;2024-02-14T05:48:49;100484.66;;;18.22;41.13
85914;BME280;76454;48.724;16.968;2024-02-14T05:51:14;100484.91;;;18.25;40.92
85914;BME280;76454;48.724;16.968;2024-02-14T05:53:39;100493.00;;;18.31;40.66
85914;BME280;76454;48.724;16.968;2024-02-14T05:56:05;100496.75;;;18.35;40.58
85914;BME280;76454;48.724;16.968;2024-02-14T05:58:30;100499.47;;;18.35;40.12
85914;BME280;76454;48.724;16.968;2024-02-14T06:00:55;100498.38;;;18.36;40.03
85914;BME280;76454;48.724;16.968;2024-02-14T06:03:21;100503.75;;;18.41;39.73
85914;BME280;76454;48.724;16.968;2024-02-14T06:05:46;100516.78;;;18.39;39.86
85914;BME280;76454;48.724;16.968;2024-02-14T06:08:11;100507.31;;;18.36;39.89
85914;BME280;76454;48.724;16.968;2024-02-14T06:10:37;100515.19;;;18.33;39.76
85914;BME280;76454;48.724;16.968;2024-02-14T06:13:03;100516.81;;;18.28;40.14
85914;BME280;76454;48.724;16.968;2024-02-14T06:15:29;100510.88;;;18.26;40.13
85914;BME280;76454;48.724;16.968;2024-02-14T06:17:54;100514.41;;;18.22;40.38
85914;BME280;76454;48.724;16.968;2024-02-14T06:20:19;100520.16;;;18.15;40.80
85914;BME280;76454;48.724;16.968;2024-02-14T06:22:44;100520.19;;;18.00;41.38
85914;BME280;76454;48.724;16.968;2024-02-14T06:25:09;100535.59;;;18.04;41.50
85914;BME280;76454;48.724;16.968;2024-02-14T06:27:35;100534.78;;;18.09;41.54
85914;BME280;76454;48.724;16.968;2024-02-14T06:30:00;100524.78;;;18.04;41.51
85914;BME280;76454;48.724;16.968;2024-02-14T06:32:25;100530.50;;;17.98;41.78
85914;BME280;76454;48.724;16.968;2024-02-14T06:34:50;100529.41;;;17.83;41.69
85914;BME280;76454;48.724;16.968;2024-02-14T06:37:16;100540.25;;;17.83;42.11
85914;BME280;76454;48.724;16.968;2024-02-14T06:39:41;100538.59;;;17.87;42.33
85914;BME280;76454;48.724;16.968;2024-02-14T06:42:06;100534.00;;;17.88;42.17
85914;BME280;76454;48.724;16.968;2024-02-14T06:44:31;100536.72;;;17.88;42.12
85914;BME280;76454;48.724;16.968;2024-02-14T06:46:56;100545.63;;;17.88;41.92
85914;BME280;76454;48.724;16.968;2024-02-14T06:49:22;100543.50;;;17.85;41.85
85914;BME280;76454;48.724;16.968;2024-02-14T06:51:47;100542.94;;;17.83;41.94
85914;BME280;76454;48.724;16.968;2024-02-14T06:54:13;100548.34;;;17.83;42.10
85914;BME280;76454;48.724;16.968;2024-02-14T06:56:38;100552.13;;;17.82;42.05
85914;BME280;76454;48.724;16.968;2024-02-14T06:59:03;100554.03;;;17.81;42.14
85914;BME280;76454;48.724;16.968;2024-02-14T07:01:29;100547.81;;;17.81;41.97
85914;BME280;76454;48.724;16.968;2024-02-14T07:03:54;100549.19;;;17.84;42.14
85914;BME280;76454;48.724;16.968;2024-02-14T07:06:19;100553.47;;;17.85;42.20
85914;BME280;76454;48.724;16.968;2024-02-14T07:08:44;100546.19;;;17.85;41.85
85914;BME280;76454;48.724;16.968;2024-02-14T07:11:10;100550.78;;;17.85;42.10
85914;BME280;76454;48.724;16.968;2024-02-14T07:13:35;100556.47;;;17.83;41.78
85914;BME280;76454;48.724;16.968;2024-02-14T07:16:00;100563.50;;;17.84;42.08
85914;BME280;76454;48.724;16.968;2024-02-14T07:18:25;100561.09;;;17.83;42.17
85914;BME280;76454;48.724;16.968;2024-02-14T07:20:51;100561.88;;;17.83;41.95
85914;BME280;76454;48.724;16.968;2024-02-14T07:23:17;100555.94;;;17.86;41.85
85914;BME280;76454;48.724;16.968;2024-02-14T07:25:42;100553.72;;;17.93;41.72
85914;BME280;76454;48.724;16.968;2024-02-14T07:28:07;100561.59;;;18.00;41.44
85914;BME280;76454;48.724;16.968;2024-02-14T07:30:32;100554.00;;;18.07;40.71
85914;BME280;76454;48.724;16.968;2024-02-14T07:32:58;100561.56;;;18.10;40.67
85914;BME280;76454;48.724;16.968;2024-02-14T07:35:23;100565.88;;;18.17;40.20
85914;BME280;76454;48.724;16.968;2024-02-14T07:37:48;100568.56;;;18.22;39.79
85914;BME280;76454;48.724;16.968;2024-02-14T07:40:13;100569.34;;;18.27;39.48
85914;BME280;76454;48.724;16.968;2024-02-14T07:42:39;100565.28;;;18.30;39.61
85914;BME280;76454;48.724;16.968;2024-02-14T07:45:04;100566.66;;;18.27;39.43
85914;BME280;76454;48.724;16.968;2024-02-14T07:47:29;100565.56;;;18.23;39.68
85914;BME280;76454;48.724;16.968;2024-02-14T07:49:54;100561.50;;;18.21;39.68
85914;BME280;76454;48.724;16.968;2024-02-14T07:52:20;100562.09;;;18.18;39.84
85914;BME280;76454;48.724;16.968;2024-02-14T07:54:46;100569.13;;;18.13;40.10
85914;BME280;76454;48.724;16.968;2024-02-14T07:57:11;100558.84;;;18.10;40.34
85914;BME280;76454;48.724;16.968;2024-02-14T07:59:36;100573.47;;;18.09;40.57
85914;BME280;76454;48.724;16.968;2024-02-14T08:02:01;100569.41;;;18.07;40.60
85914;BME280;76454;48.724;16.968;2024-02-14T08:04:27;100575.13;;;18.05;40.78
85914;BME280;76454;48.724;16.968;2024-02-14T08:06:52;100574.56;;;18.03;40.79
85914;BME280;76454;48.724;16.968;2024-02-14T08:09:18;100580.25;;;18.02;41.16
85914;BME280;76454;48.724;16.968;2024-02-14T08:11:43;100578.91;;;17.99;41.35
85914;BME280;76454;48.724;16.968;2024-02-14T08:14:08;100581.91;;;17.98;41.62
85914;BME280;76454;48.724;16.968;2024-02-14T08:16:33;100582.97;;;17.96;41.70
85914;BME280;76454;48.724;16.968;2024-02-14T08:18:58;100587.84;;;17.94;41.87
85914;BME280;76454;48.724;16.968;2024-02-14T08:21:27;100591.09;;;17.91;41.99
85914;BME280;76454;48.724;16.968;2024-02-14T08:23:52;100591.88;;;17.92;42.11
85914;BME280;76454;48.724;16.968;2024-02-14T08:26:17;100590.25;;;17.91;42.21
85914;BME280;76454;48.724;16.968;2024-02-14T08:28:43;100584.34;;;17.89;42.42
85914;BME280;76454;48.724;16.968;2024-02-14T08:31:11;100590.81;;;17.88;42.35
85914;BME280;76454;48.724;16.968;2024-02-14T08:33:39;100576.75;;;17.86;42.40
85914;BME280;76454;48.724;16.968;2024-02-14T08:36:05;100581.38;;;17.85;42.22
85914;BME280;76454;48.724;16.968;2024-02-14T08:38:31;100580.53;;;17.85;42.50
85914;BME280;76454;48.724;16.968;2024-02-14T08:40:57;100578.94;;;17.84;42.64
85914;BME280;76454;48.724;16.968;2024-02-14T08:43:22;100578.94;;;17.84;42.69
85914;BME280;76454;48.724;16.968;2024-02-14T08:45:49;100583.81;;;17.81;42.74
85914;BME280;76454;48.724;16.968;2024-02-14T08:48:16;100588.13;;;17.83;42.69
85914;BME280;76454;48.724;16.968;2024-02-14T08:50:41;100578.41;;;17.81;42.76
85914;BME280;76454;48.724;16.968;2024-02-14T08:53:07;100589.22;;;17.81;42.88
85914;BME280;76454;48.724;16.968;2024-02-14T08:55:32;100584.88;;;17.80;42.81
85914;BME280;76454;48.724;16.968;2024-02-14T08:57:58;100574.84;;;17.81;42.67
85914;BME280;76454;48.724;16.968;2024-02-14T09:00:23;100566.75;;;17.81;42.84
85914;BME280;76454;48.724;16.968;2024-02-14T09:02:48;100575.41;;;17.83;42.58
85914;BME280;76454;48.724;16.968;2024-02-14T09:05:14;100577.31;;;17.83;42.71
85914;BME280;76454;48.724;16.968;2024-02-14T09:07:39;100572.97;;;17.87;42.33
85914;BME280;76454;48.724;16.968;2024-02-14T09:10:06;100571.06;;;17.87;42.52
85914;BME280;76454;48.724;16.968;2024-02-14T09:12:31;100576.72;;;17.91;42.17
85914;BME280;76454;48.724;16.968;2024-02-14T09:14:57;100576.72;;;17.91;42.26
85914;BME280;76454;48.724;16.968;2024-02-14T09:17:22;100577.00;;;17.89;42.23
85914;BME280;76454;48.724;16.968;2024-02-14T09:19:48;100586.22;;;17.88;42.50
85914;BME280;76454;48.724;16.968;2024-02-14T09:22:13;100578.91;;;17.89;42.45
85914;BME280;76454;48.724;16.968;2024-02-14T09:24:43;100578.91;;;17.89;42.35
85914;BME280;76454;48.724;16.968;2024-02-14T09:27:08;100580.00;;;17.88;42.42
85914;BME280;76454;48.724;16.968;2024-02-14T09:29:34;100577.56;;;17.86;42.52
85914;BME280;76454;48.724;16.968;2024-02-14T09:32:01;100573.75;;;17.87;42.41
85914;BME280;76454;48.724;16.968;2024-02-14T09:34:26;100571.31;;;17.91;42.35
85914;BME280;76454;48.724;16.968;2024-02-14T09:36:52;100573.50;;;17.99;42.03
85914;BME280;76454;48.724;16.968;2024-02-14T09:39:18;100570.25;;;18.07;41.72
85914;BME280;76454;48.724;16.968;2024-02-14T09:41:43;100581.56;;;18.15;41.09
85914;BME280;76454;48.724;16.968;2024-02-14T09:44:09;100575.34;;;18.19;40.90
85914;BME280;76454;48.724;16.968;2024-02-14T09:46:37;100575.84;;;18.26;40.89
85914;BME280;76454;48.724;16.968;2024-02-14T09:49:03;100569.06;;;18.29;40.45
85914;BME280;76454;48.724;16.968;2024-02-14T09:51:29;100563.09;;;18.32;40.30
85914;BME280;76454;48.724;16.968;2024-02-14T09:53:54;100569.03;;;18.34;40.31
85914;BME280;76454;48.724;16.968;2024-02-14T09:56:20;100571.47;;;18.36;40.16
85914;BME280;76454;48.724;16.968;2024-02-14T09:58:47;100569.03;;;18.34;40.13
85914;BME280;76454;48.724;16.968;2024-02-14T10:01:20;100575.03;;;18.31;40.26
85914;BME280;76454;48.724;16.968;2024-02-14T10:03:48;100566.91;;;18.26;40.26
85914;BME280;76454;48.724;16.968;2024-02-14T10:06:14;100565.84;;;18.22;40.82
85914;BME280;76454;48.724;16.968;2024-02-14T10:08:40;100564.78;;;18.18;41.05
85914;BME280;76454;48.724;16.968;2024-02-14T10:11:05;100565.06;;;18.16;41.17
85914;BME280;76454;48.724;16.968;2024-02-14T10:13:31;100563.69;;;18.13;41.21
85914;BME280;76454;48.724;16.968;2024-02-14T10:15:56;100565.91;;;18.11;41.38
85914;BME280;76454;48.724;16.968;2024-02-14T10:18:22;100559.66;;;18.11;41.64
85914;BME280;76454;48.724;16.968;2024-02-14T10:20:56;100557.78;;;18.06;41.86
85914;BME280;76454;48.724;16.968;2024-02-14T10:23:22;100553.47;;;18.05;42.18
85914;BME280;76454;48.724;16.968;2024-02-14T10:25:50;100558.34;;;18.03;42.30
85914;BME280;76454;48.724;16.968;2024-02-14T10:28:17;100548.59;;;18.02;42.33
85914;BME280;76454;48.724;16.968;2024-02-14T10:30:45;100551.56;;;18.01;42.13
85914;BME280;76454;48.724;16.968;2024-02-14T10:33:10;100542.66;;;18.00;42.36
85914;BME280;76454;48.724;16.968;2024-02-14T10:35:36;100549.69;;;18.01;42.56
85914;BME280;76454;48.724;16.968;2024-02-14T10:38:02;100539.97;;;18.00;42.21
85914;BME280;76454;48.724;16.968;2024-02-14T10:40:28;100532.13;;;17.99;42.42
85914;BME280;76454;48.724;16.968;2024-02-14T10:42:56;100525.34;;;17.96;42.49
85914;BME280;76454;48.724;16.968;2024-02-14T10:45:23;100523.47;;;17.96;42.36
85914;BME280;76454;48.724;16.968;2024-02-14T10:47:48;100525.34;;;17.96;42.52
85914;BME280;76454;48.724;16.968;2024-02-14T10:50:16;100512.94;;;17.95;42.63
85914;BME280;76454;48.724;16.968;2024-02-14T10:52:42;100511.03;;;17.95;42.43
85914;BME280;76454;48.724;16.968;2024-02-14T10:55:08;100512.94;;;17.95;42.47
85914;BME280;76454;48.724;16.968;2024-02-14T10:57:34;100510.44;;;17.93;42.49
85914;BME280;76454;48.724;16.968;2024-02-14T11:00:00;100498.28;;;17.91;42.71
85914;BME280;76454;48.724;16.968;2024-02-14T11:02:26;100502.06;;;17.90;42.74
85914;BME280;76454;48.724;16.968;2024-02-14T11:04:55;100495.06;;;17.89;42.61
85914;BME280;76454;48.724;16.968;2024-02-14T11:07:20;100500.47;;;17.89;42.77
85914;BME280;76454;48.724;16.968;2024-02-14T11:09:48;100495.06;;;17.89;42.38
85914;BME280;76454;48.724;16.968;2024-02-14T11:12:13;100494.22;;;17.88;42.85
85914;BME280;76454;48.724;16.968;2024-02-14T11:14:38;100489.09;;;17.92;42.57
85914;BME280;76454;48.724;16.968;2024-02-14T11:17:10;100482.31;;;18.00;42.55
85914;BME280;76454;48.724;16.968;2024-02-14T11:19:35;100479.84;;;18.08;42.03
85914;BME280;76454;48.724;16.968;2024-02-14T11:22:12;100477.91;;;18.19;41.81
85914;BME280;76454;48.724;16.968;2024-02-14T11:24:38;100471.09;;;18.27;41.37
85914;BME280;76454;48.724;16.968;2024-02-14T11:27:03;100472.16;;;18.31;41.17
85914;BME280;76454;48.724;16.968;2024-02-14T11:29:34;100475.34;;;18.38;40.92
85914;BME280;76454;48.724;16.968;2024-02-14T11:31:59;100478.03;;;18.43;40.91
85914;BME280;76454;48.724;16.968;2024-02-14T11:34:25;100473.97;;;18.46;40.75
85914;BME280;76454;48.724;16.968;2024-02-14T11:36:51;100473.94;;;18.51;40.51
85914;BME280;76454;48.724;16.968;2024-02-14T11:39:16;100466.91;;;18.50;40.40
85914;BME280;76454;48.724;16.968;2024-02-14T11:41:41;100463.66;;;18.48;40.48
85914;BME280;76454;48.724;16.968;2024-02-14T11:44:07;100460.19;;;18.42;40.31
85914;BME280;76454;48.724;16.968;2024-02-14T11:46:33;100463.72;;;18.38;40.71
85914;BME280;76454;48.724;16.968;2024-02-14T11:48:59;100458.34;;;18.33;41.01
85914;BME280;76454;48.724;16.968;2024-02-14T11:51:26;100457.00;;;18.30;41.38
85914;BME280;76454;48.724;16.968;2024-02-14T11:53:51;100457.25;;;18.28;41.47
85914;BME280;76454;48.724;16.968;2024-02-14T11:56:17;100453.75;;;18.28;41.68
85914;BME280;76454;48.724;16.968;2024-02-14T11:58:42;100448.09;;;18.24;41.82
85914;BME280;76454;48.724;16.968;2024-02-14T12:01:07;100444.88;;;18.22;41.72
85914;BME280;76454;48.724;16.968;2024-02-14T12:03:34;100447.34;;;18.19;41.93
85914;BME280;76454;48.724;16.968;2024-02-14T12:06:00;100435.97;;;18.17;42.08
85914;BME280;76454;48.724;16.968;2024-02-14T12:08:27;100441.94;;;18.13;42.43
85914;BME280;76454;48.724;16.968;2024-02-14T12:10:52;100439.22;;;18.13;42.48
85914;BME280;76454;48.724;16.968;2024-02-14T12:13:20;100433.00;;;18.13;42.56
85914;BME280;76454;48.724;16.968;2024-02-14T12:15:45;100425.47;;;18.10;42.35
85914;BME280;76454;48.724;16.968;2024-02-14T12:18:11;100430.03;;;18.09;42.62
85914;BME280;76454;48.724;16.968;2024-02-14T12:20:40;100434.66;;;18.09;42.81
85914;BME280;76454;48.724;16.968;2024-02-14T12:23:06;100428.44;;;18.08;42.64
85914;BME280;76454;48.724;16.968;2024-02-14T12:25:31;100430.88;;;18.05;42.94
85914;BME280;76454;48.724;16.968;2024-02-14T12:27:57;100436.28;;;18.05;42.88
85914;BME280;76454;48.724;16.968;2024-02-14T12:30:23;100439.28;;;18.03;42.88
85914;BME280;76454;48.724;16.968;2024-02-14T12:32:58;100434.94;;;18.02;42.88